Time,TemperatureF,DewpointF,PressureIn,WindDirection,WindDirectionDegrees,WindSpeedMPH,WindSpeedGustMPH,Humidity,HourlyPrecipIn,Conditions,Clouds,dailyrainin,SoftwareType,DateUTC
2013-05-28 00:00:00,67.2,40.1,29.75,SSE,161,0.0,5.0,37,0.00,CLR,,0.00,WeatherDisplay:10.37,2013-05-28 08:00:00,
2013-05-28 00:15:00,66.7,39.6,29.75,SSE,168,0.0,0.0,37,0.00,CLR,,0.00,WeatherDisplay:10.37,2013-05-28 08:15:00,
2013-05-28 00:30:00,66.4,40.0,29.75,SSE,168,0.0,0.0,38,0.00,CLR,,0.00,WeatherDisplay:10.37,2013-05-28 08:30:00,
2013-05-28 00:45:00,65.9,40.3,29.75,SE,133,2.0,4.0,39,0.00,CLR,,0.00,WeatherDisplay:10.37,2013-05-28 08:45:00,
2013-05-28 01:00:00,65.5,40.5,29.75,NE,51,2.0,6.0,40,0.00,CLR,,0.00,WeatherDisplay:10.37,2013-05-28 09:00:00,
2013-05-28 01:15:00,64.5,40.2,29.75,ENE,69,2.0,6.0,41,0.00,CLR,,0.00,WeatherDisplay:10.37,2013-05-28 09:15:00,
2013-05-28 01:30:00,63.3,40.4,29.75,ENE,78,3.0,6.0,43,0.00,CLR,,0.00,WeatherDisplay:10.37,2013-05-28 09:30:00,
2013-05-28 01:45:00,62.6,40.4,29.75,ENE,68,3.0,7.0,44,0.00,CLR,,0.00,WeatherDisplay:10.37,2013-05-28 09:45:00,
2013-05-28 02:00:00,62.5,40.3,29.75,ENE,68,2.0,8.0,44,0.00,CLR,,0.00,WeatherDisplay:10.37,2013-05-28 10:00:00,
2013-05-28 02:15:00,62.1,39.9,29.75,ENE,70,0.0,5.0,44,0.00,CLR,,0.00,WeatherDisplay:10.37,2013-05-28 10:15:00,
2013-05-28 02:30:00,62.0,39.2,29.76,ENE,75,0.0,1.0,43,0.00,CLR,,0.00,WeatherDisplay:10.37,2013-05-28 10:30:00,
2013-05-28 02:45:00,61.9,39.1,29.76,ENE,75,0.0,0.0,43,0.00,CLR,,0.00,WeatherDisplay:10.37,2013-05-28 10:45:00,
2013-05-28 03:00:00,61.8,39.0,29.76,ENE,75,0.0,0.0,43,0.00,CLR,,0.00,WeatherDisplay:10.37,2013-05-28 11:00:00,
2013-05-28 03:15:00,62.0,39.2,29.76,ENE,60,1.0,5.0,43,0.00,CLR,,0.00,WeatherDisplay:10.37,2013-05-28 11:15:00,
2013-05-28 03:30:00,61.7,39.6,29.76,ENE,63,3.0,6.0,44,0.00,CLR,,0.00,WeatherDisplay:10.37,2013-05-28 11:30:00,
2013-05-28 03:45:00,60.5,39.1,29.76,ENE,68,5.0,9.0,45,0.00,CLR,,0.00,WeatherDisplay:10.37,2013-05-28 11:45:00,
2013-05-28 04:00:00,59.6,38.7,29.76,ENE,68,5.0,8.0,46,0.00,CLR,,0.00,WeatherDisplay:10.37,2013-05-28 12:00:00,
2013-05-28 04:15:00,59.1,38.9,29.76,ENE,70,3.0,7.0,47,0.00,CLR,,0.00,WeatherDisplay:10.37,2013-05-28 12:15:00,
2013-05-28 04:30:00,58.7,39.0,29.76,ENE,71,2.0,7.0,48,0.00,CLR,,0.00,WeatherDisplay:10.37,2013-05-28 12:30:00,
2013-05-28 04:45:00,58.1,39.0,29.77,ENE,74,2.0,5.0,49,0.00,CLR,,0.00,WeatherDisplay:10.37,2013-05-28 12:45:00,
2013-05-28 05:00:00,58.2,39.1,29.77,East,83,5.0,8.0,49,0.00,CLR,,0.00,WeatherDisplay:10.37,2013-05-28 13:00:00,
2013-05-28 05:15:00,58.1,40.1,29.77,East,84,5.0,8.0,51,0.00,CLR,,0.00,WeatherDisplay:10.37,2013-05-28 13:15:00,
2013-05-28 05:30:00,57.4,40.4,29.77,East,80,3.0,8.0,53,0.00,CLR,,0.00,WeatherDisplay:10.37,2013-05-28 13:30:00,
2013-05-28 05:45:00,56.9,40.9,29.78,ENE,73,2.0,8.0,55,0.00,CLR,,0.00,WeatherDisplay:10.37,2013-05-28 13:45:00,
2013-05-28 06:00:00,56.2,40.2,29.78,ENE,72,3.0,7.0,55,0.00,CLR,,0.00,WeatherDisplay:10.37,2013-05-28 14:00:00,
2013-05-28 06:15:00,55.5,40.1,29.78,ENE,75,2.0,7.0,56,0.00,CLR,,0.00,WeatherDisplay:10.37,2013-05-28 14:15:00,
2013-05-28 06:30:00,55.2,40.7,29.78,ENE,72,2.0,5.0,58,0.00,CLR,,0.00,WeatherDisplay:10.37,2013-05-28 14:30:00,
2013-05-28 06:45:00,55.4,40.8,29.78,ENE,69,3.0,6.0,58,0.00,CLR,,0.00,WeatherDisplay:10.37,2013-05-28 14:45:00,
2013-05-28 07:00:00,55.9,41.3,29.78,ENE,62,2.0,8.0,58,0.00,CLR,,0.00,WeatherDisplay:10.37,2013-05-28 15:00:00,
2013-05-28 07:15:00,56.9,41.8,29.78,ENE,69,3.0,7.0,57,0.00,CLR,,0.00,WeatherDisplay:10.37,2013-05-28 15:15:00,
2013-05-28 07:30:00,57.3,41.7,29.78,ENE,65,0.0,7.0,56,0.00,CLR,,0.00,WeatherDisplay:10.37,2013-05-28 15:30:00,
2013-05-28 07:45:00,57.8,41.7,29.78,SE,124,1.0,6.0,55,0.00,CLR,,0.00,WeatherDisplay:10.37,2013-05-28 15:45:00,
2013-05-28 08:00:00,58.2,41.6,29.78,ENE,60,3.0,6.0,54,0.00,CLR,,0.00,WeatherDisplay:10.37,2013-05-28 16:00:00,
2013-05-28 08:15:00,59.3,42.1,29.78,NE,52,2.0,6.0,53,0.00,CLR,,0.00,WeatherDisplay:10.37,2013-05-28 16:15:00,
2013-05-28 08:30:00,60.1,42.4,29.78,NE,56,3.0,6.0,52,0.00,CLR,,0.00,WeatherDisplay:10.37,2013-05-28 16:30:00,
2013-05-28 08:45:00,61.0,42.7,29.78,ENE,59,6.0,9.0,51,0.00,CLR,,0.00,WeatherDisplay:10.37,2013-05-28 16:45:00,
2013-05-28 09:00:00,62.2,42.3,29.78,NE,47,2.0,8.0,48,0.00,CLR,,0.00,WeatherDisplay:10.37,2013-05-28 17:00:00,
2013-05-28 09:15:00,63.3,42.2,29.78,ENE,66,3.0,8.0,46,0.00,CLR,,0.00,WeatherDisplay:10.37,2013-05-28 17:15:00,
2013-05-28 09:30:00,64.4,42.6,29.78,ENE,77,2.0,7.0,45,0.00,CLR,,0.00,WeatherDisplay:10.37,2013-05-28 17:30:00,
2013-05-28 09:45:00,65.6,43.1,29.78,NE,46,3.0,8.0,44,0.00,CLR,,0.00,WeatherDisplay:10.37,2013-05-28 17:45:00,
2013-05-28 10:00:00,66.4,42.6,29.78,ENE,59,3.0,7.0,42,0.00,CLR,,0.00,WeatherDisplay:10.37,2013-05-28 18:00:00,
2013-05-28 10:15:00,67.2,42.7,29.78,NE,54,2.0,6.0,41,0.00,CLR,,0.00,WeatherDisplay:10.37,2013-05-28 18:15:00,
2013-05-28 10:30:00,68.0,42.8,29.78,SE,130,3.0,7.0,40,0.00,CLR,,0.00,WeatherDisplay:10.37,2013-05-28 18:30:00,
2013-05-28 10:45:00,68.4,42.5,29.78,East,80,3.0,9.0,39,0.00,CLR,,0.00,WeatherDisplay:10.37,2013-05-28 18:45:00,
2013-05-28 11:00:00,69.0,41.6,29.78,ESE,121,1.0,8.0,37,0.00,CLR,,0.00,WeatherDisplay:10.37,2013-05-28 19:00:00,
2013-05-28 11:15:00,69.5,42.0,29.78,SE,133,3.0,7.0,37,0.00,CLR,,0.00,WeatherDisplay:10.37,2013-05-28 19:15:00,
2013-05-28 11:30:00,70.1,41.9,29.77,SE,142,3.0,7.0,36,0.00,CLR,,0.00,WeatherDisplay:10.37,2013-05-28 19:30:00,
2013-05-28 11:45:00,70.8,42.5,29.77,ESE,111,3.0,6.0,36,0.00,CLR,,0.00,WeatherDisplay:10.37,2013-05-28 19:45:00,
2013-05-28 12:00:00,71.6,43.2,29.77,SSE,148,6.0,9.0,36,0.00,CLR,,0.00,WeatherDisplay:10.37,2013-05-28 20:00:00,
2013-05-28 12:15:00,72.5,43.3,29.76,SSE,149,1.0,8.0,35,0.00,CLR,,0.00,WeatherDisplay:10.37,2013-05-28 20:15:00,
2013-05-28 12:30:00,73.0,44.4,29.76,SSE,152,1.0,7.0,36,0.00,CLR,,0.00,WeatherDisplay:10.37,2013-05-28 20:30:00,
2013-05-28 12:45:00,72.6,42.7,29.75,WSW,240,2.0,9.0,34,0.00,CLR,,0.00,WeatherDisplay:10.37,2013-05-28 20:45:00,
2013-05-28 13:00:00,72.7,42.7,29.75,WSW,253,2.0,9.0,34,0.00,CLR,,0.00,WeatherDisplay:10.37,2013-05-28 21:00:00,
2013-05-28 13:15:00,73.9,43.0,29.75,WSW,256,3.0,7.0,33,0.00,CLR,,0.00,WeatherDisplay:10.37,2013-05-28 21:15:00,
2013-05-28 13:30:00,73.7,42.8,29.75,West,261,3.0,7.0,33,0.00,CLR,,0.00,WeatherDisplay:10.37,2013-05-28 21:30:00,
2013-05-28 13:45:00,74.9,43.1,29.74,WSW,258,3.0,9.0,32,0.00,CLR,,0.00,WeatherDisplay:10.37,2013-05-28 21:45:00,
2013-05-28 14:00:00,76.0,42.3,29.74,SSE,153,1.0,10.0,30,0.00,CLR,,0.00,WeatherDisplay:10.37,2013-05-28 22:00:00,
2013-05-28 14:15:00,76.9,41.3,29.73,SE,138,5.0,9.0,28,0.00,CLR,,0.00,WeatherDisplay:10.37,2013-05-28 22:15:00,
2013-05-28 14:30:00,76.9,41.3,29.73,ENE,71,1.0,8.0,28,0.00,CLR,,0.00,WeatherDisplay:10.37,2013-05-28 22:30:00,
2013-05-28 14:45:00,76.9,41.3,29.72,South,184,8.0,13.0,28,0.00,CLR,,0.00,WeatherDisplay:10.37,2013-05-28 22:45:00,
2013-05-28 15:00:00,76.9,38.4,29.72,NW,314,6.0,13.0,25,0.00,CLR,,0.00,WeatherDisplay:10.37,2013-05-28 23:00:00,
2013-05-28 15:15:00,76.9,39.4,29.71,WSW,247,5.0,12.0,26,0.00,CLR,,0.00,WeatherDisplay:10.37,2013-05-28 23:15:00,
2013-05-28 15:30:00,76.9,38.4,29.71,WSW,249,3.0,11.0,25,0.00,CLR,,0.00,WeatherDisplay:10.37,2013-05-28 23:30:00,
2013-05-28 15:45:00,76.9,36.3,29.70,South,191,5.0,11.0,23,0.00,CLR,,0.00,WeatherDisplay:10.37,2013-05-28 23:45:00,
2013-05-28 16:00:00,76.9,36.3,29.70,WSW,245,5.0,9.0,23,0.00,CLR,,0.00,WeatherDisplay:10.37,2013-05-29 00:00:00,
2013-05-28 16:15:00,76.9,38.4,29.70,NW,316,1.0,7.0,25,0.00,CLR,,0.00,WeatherDisplay:10.37,2013-05-29 00:15:00,
2013-05-28 16:30:00,76.1,44.9,29.72,West,269,3.0,9.0,33,0.00,CLR,,0.00,WeatherDisplay:10.37,2013-05-29 00:30:00,
2013-05-28 16:45:00,73.6,49.0,29.71,South,172,6.0,16.0,42,0.00,CLR,,0.00,WeatherDisplay:10.37,2013-05-29 00:45:00,
2013-05-28 17:00:00,72.9,47.8,29.70,ESE,116,5.0,22.0,41,0.00,CLR,,0.00,WeatherDisplay:10.37,2013-05-29 01:00:00,
2013-05-28 17:15:00,75.6,46.0,29.69,East,81,6.0,12.0,35,0.00,CLR,,0.00,WeatherDisplay:10.37,2013-05-29 01:15:00,
2013-05-28 17:30:00,76.9,41.3,29.69,ENE,76,5.0,9.0,28,0.00,CLR,,0.00,WeatherDisplay:10.37,2013-05-29 01:30:00,
2013-05-28 17:45:00,76.9,37.3,29.68,ENE,60,3.0,7.0,24,0.00,CLR,,0.00,WeatherDisplay:10.37,2013-05-29 01:45:00,
2013-05-28 18:00:00,76.9,37.3,29.68,NNE,19,0.0,7.0,24,0.00,CLR,,0.00,WeatherDisplay:10.37,2013-05-29 02:00:00,
2013-05-28 18:15:00,76.9,37.3,29.68,East,85,0.0,2.0,24,0.00,CLR,,0.00,WeatherDisplay:10.37,2013-05-29 02:15:00,
2013-05-28 18:30:00,76.9,37.3,29.67,NW,321,2.0,5.0,24,0.00,CLR,,0.00,WeatherDisplay:10.37,2013-05-29 02:30:00,
2013-05-28 18:45:00,76.9,37.3,29.67,NW,304,0.0,5.0,24,0.00,CLR,,0.00,WeatherDisplay:10.37,2013-05-29 02:45:00,
2013-05-28 19:00:00,76.9,37.3,29.67,West,260,0.0,8.0,24,0.00,CLR,,0.00,WeatherDisplay:10.37,2013-05-29 03:00:00,
2013-05-28 19:15:00,76.9,39.4,29.67,North,356,0.0,3.0,26,0.00,CLR,,0.00,WeatherDisplay:10.37,2013-05-29 03:15:00,
2013-05-28 19:30:00,76.9,39.4,29.67,North,356,0.0,0.0,26,0.00,CLR,,0.00,WeatherDisplay:10.37,2013-05-29 03:30:00,
2013-05-28 19:45:00,76.9,37.3,29.67,North,4,2.0,5.0,24,0.00,CLR,,0.00,WeatherDisplay:10.37,2013-05-29 03:45:00,
2013-05-28 20:00:00,76.9,38.4,29.66,North,357,1.0,5.0,25,0.00,CLR,,0.00,WeatherDisplay:10.37,2013-05-29 04:00:00,
2013-05-28 20:15:00,76.9,39.4,29.67,WNW,294,1.0,5.0,26,0.00,CLR,,0.00,WeatherDisplay:10.37,2013-05-29 04:15:00,
2013-05-28 20:30:00,76.8,39.3,29.66,NW,315,0.0,1.0,26,0.00,CLR,,0.00,WeatherDisplay:10.37,2013-05-29 04:30:00,
2013-05-28 20:45:00,76.5,40.0,29.67,North,7,0.0,2.0,27,0.00,CLR,,0.00,WeatherDisplay:10.37,2013-05-29 04:45:00,
2013-05-28 21:00:00,76.2,40.7,29.67,North,3,0.0,1.0,28,0.00,CLR,,0.00,WeatherDisplay:10.37,2013-05-29 05:00:00,
2013-05-28 21:15:00,76.0,40.5,29.67,North,1,0.0,2.0,28,0.00,CLR,,0.00,WeatherDisplay:10.37,2013-05-29 05:15:00,
2013-05-28 21:30:00,75.8,40.3,29.67,North,1,0.0,0.0,28,0.00,CLR,,0.00,WeatherDisplay:10.37,2013-05-29 05:30:00,
2013-05-28 21:45:00,75.7,40.3,29.67,NE,40,0.0,2.0,28,0.00,CLR,,0.00,WeatherDisplay:10.37,2013-05-29 05:45:00,
2013-05-28 22:00:00,75.7,40.2,29.67,NE,45,1.0,2.0,28,0.00,CLR,,0.00,WeatherDisplay:10.37,2013-05-29 06:00:00,
2013-05-28 22:15:00,75.5,41.0,29.67,NE,49,2.0,5.0,29,0.00,CLR,,0.00,WeatherDisplay:10.37,2013-05-29 06:15:00,
2013-05-28 22:30:00,74.4,40.9,29.67,ENE,57,2.0,5.0,30,0.00,CLR,,0.00,WeatherDisplay:10.37,2013-05-29 06:30:00,
2013-05-28 22:45:00,73.6,40.3,29.67,NE,50,2.0,5.0,30,0.00,CLR,,0.00,WeatherDisplay:10.37,2013-05-29 06:45:00,
2013-05-28 23:00:00,72.8,40.4,29.67,NE,56,3.0,7.0,31,0.00,CLR,,0.00,WeatherDisplay:10.37,2013-05-29 07:00:00,
2013-05-28 23:15:00,72.1,40.6,29.67,NE,48,3.0,10.0,32,0.00,CLR,,0.00,WeatherDisplay:10.37,2013-05-29 07:15:00,
2013-05-28 23:30:00,71.1,40.5,29.67,NE,53,3.0,8.0,33,0.00,CLR,,0.00,WeatherDisplay:10.37,2013-05-29 07:30:00,
2013-05-28 23:45:00,69.8,40.9,29.67,ENE,59,5.0,10.0,35,0.00,CLR,,0.00,WeatherDisplay:10.37,2013-05-29 07:45:00,